createdAt,value
2022-11-15T00:02:07.568Z,27.13
2022-11-15T00:06:37.671Z,30.60
2022-11-15T00:11:11.688Z,25.50
2022-11-15T00:15:42.178Z,29.20
2022-11-15T00:20:12.433Z,21.43
2022-11-15T00:24:43.583Z,24.27
2022-11-15T00:29:13.413Z,19.27
2022-11-15T00:33:45.103Z,23.77
2022-11-15T00:38:15.381Z,29.40
2022-11-15T00:42:45.481Z,28.20
2022-11-15T00:47:16.613Z,23.87
2022-11-15T00:51:46.488Z,22.73
2022-11-15T00:56:16.341Z,24.93
2022-11-15T01:00:46.319Z,24.10
2022-11-15T01:05:16.331Z,22.03
2022-11-15T01:09:46.500Z,22.17
2022-11-15T01:14:17.701Z,22.73
2022-11-15T01:18:50.136Z,23.00
2022-11-15T01:23:20.327Z,19.43
2022-11-15T01:27:50.143Z,20.77
2022-11-15T01:32:20.085Z,19.30
2022-11-15T01:36:50.033Z,23.67
2022-11-15T01:41:23.108Z,18.60
2022-11-15T01:46:22.388Z,19.93
2022-11-15T01:50:52.568Z,18.03
2022-11-15T01:55:26.860Z,17.17
2022-11-15T01:59:58.320Z,17.70
2022-11-15T02:04:34.873Z,19.83
2022-11-15T02:09:04.924Z,17.67
2022-11-15T02:13:35.545Z,18.33
2022-11-15T02:18:16.372Z,16.80
2022-11-15T02:23:15.814Z,20.30
2022-11-15T02:28:10.373Z,19.10
2022-11-15T02:32:55.610Z,19.13
2022-11-15T02:37:53.632Z,16.47
2022-11-15T02:42:49.935Z,20.00
2022-11-15T02:47:21.865Z,18.77
2022-11-15T02:51:53.274Z,18.13
2022-11-15T02:56:23.432Z,19.20
2022-11-15T03:01:08.289Z,20.50
2022-11-15T03:05:50.259Z,15.37
2022-11-15T03:10:23.921Z,18.63
2022-11-15T03:15:02.392Z,15.23
2022-11-15T03:19:47.841Z,15.83
2022-11-15T03:24:25.661Z,14.73
2022-11-15T03:29:09.883Z,15.73
2022-11-15T03:33:40.965Z,17.13
2022-11-15T03:38:23.103Z,15.40
2022-11-15T03:43:11.246Z,17.50
2022-11-15T03:47:48.139Z,19.03
2022-11-15T03:52:20.009Z,16.47
2022-11-15T03:56:50.054Z,17.40
2022-11-15T04:01:19.966Z,18.33
2022-11-15T04:05:50.203Z,22.48
2022-11-15T04:10:20.081Z,17.88
2022-11-15T04:15:07.924Z,22.53
2022-11-15T04:19:56.268Z,22.13
2022-11-15T04:24:26.482Z,23.38
2022-11-15T04:29:14.776Z,19.20
2022-11-15T04:33:44.882Z,16.48
2022-11-15T04:38:14.847Z,22.97
2022-11-15T04:42:44.810Z,18.98
2022-11-15T04:47:14.937Z,20.57
2022-11-15T04:51:45.471Z,19.38
2022-11-15T04:56:15.410Z,18.98
2022-11-15T05:00:45.526Z,19.35
2022-11-15T05:05:15.540Z,20.05
2022-11-15T05:09:45.801Z,23.55
2022-11-15T05:14:16.381Z,21.30
2022-11-15T05:18:46.223Z,21.15
2022-11-15T05:23:16.431Z,20.38
2022-11-15T05:27:46.448Z,24.92
2022-11-15T05:32:18.669Z,19.95
2022-11-15T05:36:49.195Z,21.30
2022-11-15T05:41:25.187Z,23.52
2022-11-15T05:45:55.318Z,21.67
2022-11-15T05:50:26.096Z,20.52
2022-11-15T05:54:57.868Z,23.60
2022-11-15T05:59:31.497Z,20.55
2022-11-15T06:04:01.376Z,26.55
2022-11-15T06:08:31.371Z,21.67
2022-11-15T06:13:03.787Z,19.63
2022-11-15T06:17:33.711Z,21.98
2022-11-15T06:22:03.625Z,23.42
2022-11-15T06:26:34.045Z,22.75
2022-11-15T06:31:14.751Z,24.05
2022-11-15T06:35:44.660Z,21.52
2022-11-15T06:40:14.461Z,19.42
2022-11-15T06:44:44.506Z,19.45
2022-11-15T06:49:14.416Z,21.70
2022-11-15T06:53:44.717Z,17.25
2022-11-15T06:58:14.966Z,18.45
2022-11-15T07:02:45.539Z,16.15
2022-11-15T07:07:15.493Z,17.27
2022-11-15T07:11:45.664Z,17.45
2022-11-15T07:16:15.684Z,16.60
2022-11-15T07:20:46.025Z,14.88
2022-11-15T07:25:16.256Z,14.00
2022-11-15T07:29:46.449Z,15.27
2022-11-15T07:34:16.799Z,15.65
2022-11-15T07:38:47.389Z,16.08
2022-11-15T07:43:17.236Z,13.25
2022-11-15T07:47:50.674Z,14.40
2022-11-15T07:52:21.012Z,13.93
2022-11-15T07:56:51.132Z,14.90
2022-11-15T08:01:21.573Z,13.27
2022-11-15T08:05:52.711Z,14.93
2022-11-15T08:10:22.727Z,14.30
2022-11-15T08:14:53.114Z,17.85
2022-11-15T08:19:23.523Z,14.63
2022-11-15T08:23:53.834Z,16.08
2022-11-15T08:28:23.946Z,38.38
2022-11-15T08:32:56.780Z,14.60
2022-11-15T08:37:26.662Z,15.63
2022-11-15T08:41:56.870Z,13.90
2022-11-15T08:46:27.007Z,18.50
2022-11-15T08:50:57.584Z,13.43
2022-11-15T08:55:27.639Z,13.63
2022-11-15T08:59:58.365Z,11.52
2022-11-15T09:04:28.498Z,14.13
2022-11-15T09:08:58.913Z,12.63
2022-11-15T09:13:28.965Z,11.95
2022-11-15T09:18:00.268Z,9.48
2022-11-15T09:22:30.348Z,12.60
2022-11-15T09:27:00.390Z,8.18
2022-11-15T09:31:30.603Z,11.70
2022-11-15T09:36:03.140Z,17.80
2022-11-15T09:40:36.652Z,8.35
2022-11-15T09:45:35.248Z,10.60
2022-11-15T09:50:37.341Z,7.43
2022-11-15T09:54:55.465Z,6.15
2022-11-15T09:59:07.588Z,5.97
2022-11-15T10:03:38.375Z,7.05
2022-11-15T10:08:14.479Z,6.43
2022-11-15T10:12:26.924Z,9.13
2022-11-15T10:16:48.037Z,4.25
2022-11-15T10:21:09.066Z,5.20
2022-11-15T10:25:25.127Z,5.43
2022-11-15T10:29:36.700Z,4.25
2022-11-15T10:33:48.269Z,3.55
2022-11-15T10:38:07.863Z,3.35
2022-11-15T10:42:30.216Z,4.40
2022-11-15T10:46:48.053Z,2.63
2022-11-15T10:50:59.696Z,3.47
2022-11-15T10:55:17.138Z,4.13
2022-11-15T10:59:34.906Z,4.05
2022-11-15T11:04:10.496Z,3.78
2022-11-15T11:08:25.670Z,2.13
2022-11-15T11:12:37.712Z,1.63
2022-11-15T11:16:54.423Z,1.67
2022-11-15T11:21:12.848Z,2.90
2022-11-15T11:25:24.273Z,2.20
2022-11-15T11:29:51.377Z,2.90
2022-11-15T11:34:27.118Z,1.42
2022-11-15T11:38:41.449Z,2.40
2022-11-15T11:43:00.113Z,1.48
2022-11-15T11:47:16.168Z,2.95
2022-11-15T11:51:39.351Z,1.55
2022-11-15T11:55:55.208Z,2.15
2022-11-15T12:00:24.667Z,2.47
2022-11-15T12:04:45.332Z,3.13
2022-11-15T12:09:13.429Z,1.50
2022-11-15T12:13:30.176Z,4.03
2022-11-15T12:17:42.492Z,2.00
2022-11-15T12:22:01.596Z,1.92
2022-11-15T12:26:20.246Z,2.35
2022-11-15T12:30:49.759Z,1.88
2022-11-15T12:35:04.202Z,1.85
2022-11-15T12:39:17.185Z,1.88
2022-11-15T12:43:43.287Z,1.77
2022-11-15T12:48:17.145Z,1.45
2022-11-15T12:52:28.658Z,1.20
2022-11-15T12:56:41.224Z,1.35
2022-11-15T13:00:52.788Z,2.05
2022-11-15T13:05:16.499Z,2.20
2022-11-15T13:09:36.949Z,2.55
2022-11-15T13:13:48.426Z,4.22
2022-11-15T13:18:00.831Z,4.88
2022-11-15T13:22:30.916Z,2.90
2022-11-15T13:26:42.785Z,5.03
2022-11-15T13:30:57.230Z,4.05
2022-11-15T13:35:08.710Z,5.57
2022-11-15T13:39:35.098Z,3.55
2022-11-15T13:43:47.144Z,2.42
2022-11-15T13:47:59.896Z,10.82
2022-11-15T13:52:15.661Z,5.95
2022-11-15T13:56:28.629Z,5.18
2022-11-15T14:00:45.012Z,1.10
2022-11-15T14:05:17.972Z,4.25
2022-11-15T14:09:41.208Z,5.50
2022-11-15T14:14:12.983Z,1.60
2022-11-15T14:18:51.135Z,1.98
2022-11-15T14:23:05.737Z,1.55
2022-11-15T14:27:17.208Z,1.67
2022-11-15T14:31:28.814Z,1.63
2022-11-15T14:35:40.386Z,3.00
2022-11-15T14:39:53.073Z,6.65
2022-11-15T14:44:05.933Z,1.50
2022-11-15T14:48:17.391Z,2.03
2022-11-15T14:52:34.247Z,2.28
2022-11-15T14:56:45.730Z,2.60
2022-11-15T15:00:57.248Z,2.38
2022-11-15T15:05:20.988Z,2.08
2022-11-15T15:09:32.479Z,2.25
2022-11-15T15:13:44.419Z,2.58
2022-11-15T15:17:55.942Z,1.35
2022-11-15T15:22:18.066Z,7.40
2022-11-15T15:26:29.573Z,1.40
2022-11-15T15:30:41.386Z,4.82
2022-11-15T15:34:52.888Z,2.88
2022-11-15T15:39:04.523Z,5.38
2022-11-15T15:43:16.028Z,1.48
2022-11-15T15:47:27.517Z,3.20
2022-11-15T15:51:39.163Z,2.25
2022-11-15T15:55:50.670Z,1.20
2022-11-15T16:00:03.418Z,2.22
2022-11-15T16:04:24.029Z,1.70
2022-11-15T16:08:53.242Z,1.70
2022-11-15T16:13:07.478Z,2.50
2022-11-15T16:17:22.296Z,2.97
2022-11-15T16:21:33.810Z,2.97
2022-11-15T16:25:48.517Z,1.98
2022-11-15T16:30:00.025Z,1.67
2022-11-15T16:34:11.527Z,2.53
2022-11-15T16:38:23.024Z,7.85
2022-11-15T16:42:34.530Z,2.55
2022-11-15T16:46:51.762Z,2.03
2022-11-15T16:51:04.925Z,2.38
2022-11-15T16:55:16.471Z,3.40
2022-11-15T16:59:28.009Z,4.63
2022-11-15T17:03:39.567Z,2.15
2022-11-15T17:07:54.999Z,2.28
2022-11-15T17:12:06.525Z,2.25
2022-11-15T17:16:18.852Z,2.67
2022-11-15T17:20:30.443Z,1.70
2022-11-15T17:24:42.017Z,3.67
2022-11-15T17:28:57.157Z,1.75
2022-11-15T17:33:08.773Z,3.63
2022-11-15T17:37:20.300Z,7.20
2022-11-15T17:41:32.212Z,4.05
2022-11-15T17:45:43.829Z,6.88
2022-11-15T17:49:55.434Z,3.08
2022-11-15T17:54:07.043Z,2.72
2022-11-15T17:58:19.221Z,2.80
2022-11-15T18:02:30.878Z,3.20
2022-11-15T18:06:42.559Z,12.23
2022-11-15T18:11:06.233Z,7.38
2022-11-15T18:15:19.098Z,3.72
2022-11-15T18:19:30.686Z,2.85
2022-11-15T18:23:44.537Z,3.65
2022-11-15T18:27:56.181Z,3.45
2022-11-15T18:32:12.425Z,4.97
2022-11-15T18:36:26.386Z,4.07
2022-11-15T18:40:37.969Z,5.22
2022-11-15T18:44:49.511Z,4.50
2022-11-15T18:49:02.268Z,3.45
2022-11-15T18:53:14.116Z,4.85
2022-11-15T18:57:25.688Z,5.65
2022-11-15T19:01:39.976Z,3.88
2022-11-15T19:05:51.574Z,4.53
2022-11-15T19:10:03.554Z,6.03
2022-11-15T19:14:17.240Z,6.72
2022-11-15T19:18:29.697Z,4.50
2022-11-15T19:22:41.354Z,5.78
2022-11-15T19:26:53.007Z,4.57
2022-11-15T19:31:11.716Z,5.30
2022-11-15T19:35:23.496Z,6.82
2022-11-15T19:39:39.844Z,4.30
2022-11-15T19:43:53.274Z,6.22
2022-11-15T19:48:05.080Z,4.50
2022-11-15T19:52:16.625Z,7.18
2022-11-15T19:56:28.210Z,6.25
2022-11-15T20:00:39.799Z,4.65
2022-11-15T20:04:51.568Z,5.80
2022-11-15T20:09:03.392Z,6.03
2022-11-15T20:13:14.936Z,4.70
2022-11-15T20:17:26.552Z,7.60
2022-11-15T20:21:38.162Z,4.65
2022-11-15T20:25:50.146Z,4.35
2022-11-15T20:30:02.008Z,5.28
2022-11-15T20:34:13.625Z,4.93
2022-11-15T20:38:25.252Z,4.68
2022-11-15T20:42:36.824Z,5.90
2022-11-15T20:46:48.667Z,5.53
2022-11-15T20:51:06.133Z,7.00
2022-11-15T20:55:17.883Z,5.45
2022-11-15T20:59:29.488Z,5.25
2022-11-15T21:03:41.128Z,5.85
2022-11-15T21:07:52.777Z,6.38
2022-11-15T21:12:13.458Z,6.68
2022-11-15T21:16:25.022Z,9.38
2022-11-15T21:20:36.636Z,7.22
2022-11-15T21:24:48.223Z,7.97
2022-11-15T21:28:59.939Z,7.32
2022-11-15T21:33:11.519Z,7.35
2022-11-15T21:37:23.116Z,7.25
2022-11-15T21:41:34.727Z,7.53
2022-11-15T21:46:01.108Z,7.35
2022-11-15T21:50:12.677Z,7.07
2022-11-15T21:54:24.231Z,7.18
2022-11-15T21:58:36.132Z,8.13
2022-11-15T22:02:48.020Z,7.57
2022-11-15T22:06:59.640Z,8.85
2022-11-15T22:11:11.198Z,8.50
2022-11-15T22:15:22.758Z,7.70
2022-11-15T22:19:34.701Z,7.70
2022-11-15T22:23:46.351Z,7.50
2022-11-15T22:27:57.969Z,8.25
2022-11-15T22:32:09.555Z,8.95
2022-11-15T22:36:21.108Z,9.07
2022-11-15T22:40:32.736Z,10.82
2022-11-15T22:44:44.301Z,10.10
2022-11-15T22:48:58.616Z,9.77
2022-11-15T22:53:13.845Z,9.77
2022-11-15T22:57:25.471Z,10.65
2022-11-15T23:01:37.092Z,10.00
2022-11-15T23:05:49.645Z,9.90
2022-11-15T23:10:19.734Z,10.32
2022-11-15T23:14:31.328Z,11.85
2022-11-15T23:18:42.894Z,11.25
2022-11-15T23:22:54.460Z,11.05
2022-11-15T23:27:07.737Z,10.70
2022-11-15T23:31:37.927Z,13.80
2022-11-15T23:35:55.590Z,10.85
2022-11-15T23:40:08.111Z,16.38
2022-11-15T23:44:19.715Z,11.82
2022-11-15T23:48:31.610Z,10.80
2022-11-15T23:52:43.442Z,11.77
2022-11-15T23:56:55.030Z,10.93
